Lexington, Minnesota
Current Conditions -  °F | °C
As of 5:45 PM on Saturday 20 Dec 2014 (Local Time) from KANE Reporting Station
Overcast Overcast  
Wind Chill: 28°   Ceiling: 1400
Heat Index: 34°   Visibility: 10mi
Dew Point: 30°   Wind: 7mph
Humidity: 87%   Direction: 160°SSE
Pressure: 30.1"   Gusts: NA
Location:  45.1631°N, 93.1211°W
Report Text: KANE 202345Z 16006KT 10SM OVC014 01/M01 A3010
Loading
Personal Weather Stations






























Interactive Weather Map New forecast layout! Learn more

10-Day Weather Forecast

Advertisements
Track Severe Weather on mobile